• Join FlightAware (Why Join?)
  • Login
  • US Flag 
01:28PM EST


 

Airport Tracker/Info


-or-


 

Live Flight TrackerFlight Track Log ✈ FSR103 ✈ 26-Dec-2013 ✈ KABE - KAPF

Flight Track Log - Related Links

Times and Time Zones

All times are in EST time to prevent confusion due to time zone crossing. See the FSR103 flight status page for this flight to view local times or setup timezone preferences in your user account.

Time Position Orientation Groundspeed Altitude Reporting Facility
EST Latitude Longitude Course Direction KTS MPH feet Rate Location/Type
06:43PM 40.6075 -75.5275 242° Southwest 184 212 4,700  Level New York Center
06:44PM 40.5933 -75.6167 258° West 220 253 7,700 3,240 Climbing New York Center
06:45PM 40.5711 -75.7025 251° West 248 285 11,200 2,100 Climbing New York Center
06:46PM 40.5183 -75.7669 223° Southwest 273 314 12,000 1,500 Climbing New York Center
06:47PM 40.4542 -75.8525 225° Southwest 315 362 14,300 2,280 Climbing New York Center
06:48PM 40.0992 -75.7304 237° Southwest  Level Estimated
06:48PM 40.3900 -75.9403 226° Southwest 334 384 16,600  Level New York Center
06:49PM 40.3128 -76.0353 223° Southwest 342 394 19,900 3,120 Climbing New York Center
06:50PM 40.2667 -76.1353 239° Southwest 340 391 22,900 2,880 Climbing New York Center
06:51PM 40.1861 -76.2106 216° Southwest 340 391 25,700 2,640 Climbing New York Center
06:52PM 40.1117 -76.2861 218° Southwest 354 407 28,200 2,280 Climbing New York Center
06:53PM 40.0289 -76.3608 215° Southwest 367 422 30,300 1,980 Climbing New York Center
06:55PM 39.8833 -76.4919 215° Southwest 368 423 33,500 1,860 Climbing Washington Center
06:56PM 39.8056 -76.5611 214° Southwest 375 432 35,200 1,560 Climbing Washington Center
06:57PM 39.7236 -76.6356 215° Southwest 375 432 36,600 1,260 Climbing Washington Center
06:58PM 39.6439 -76.7125 217° Southwest 370 426 37,800 1,080 Climbing Washington Center
06:59PM 39.5578 -76.7894 215° Southwest 370 426 38,800 840 Climbing Washington Center
07:00PM 39.4736 -76.8658 215° Southwest 370 426 39,500 600 Climbing Washington Center
07:01PM 39.3894 -76.9422 215° Southwest 370 426 40,000 240 Climbing Washington Center
07:02PM 39.3008 -77.0211 215° Southwest 376 433 40,000  Level Washington Center
07:03PM 39.2144 -77.0997 215° Southwest 387 445 40,000  Level Washington Center
07:04PM 39.1239 -77.1808 215° Southwest 387 445 40,000  Level Washington Center
07:05PM 39.0331 -77.2617 215° Southwest 393 452 40,000  Level Washington Center
07:06PM 38.9444 -77.3397 214° Southwest 393 452 40,000  Level Washington Center
07:07PM 38.8578 -77.4178 215° Southwest 393 452 40,000  Level Washington Center
07:08PM 38.7692 -77.4928 213° Southwest 393 452 40,000  Level Washington Center
07:09PM 38.6739 -77.5781 215° Southwest 393 452 40,000  Level Washington Center
07:10PM 38.5892 -77.6528 215° Southwest 387 445 40,000  Level Washington Center
07:11PM 38.5003 -77.7300 214° Southwest 387 445 40,000  Level Washington Center
07:12PM 38.4178 -77.8044 215° Southwest 387 445 40,000  Level Washington Center
07:13PM 38.3267 -77.8839 214° Southwest 387 445 40,000  Level Washington Center
07:14PM 38.2394 -77.9603 215° Southwest 392 451 40,000  Level Washington Center
07:15PM 38.1525 -78.0369 215° Southwest 387 445 40,000  Level Washington Center
07:16PM 38.0633 -78.1106 213° Southwest 387 445 40,000  Level Washington Center
07:17PM 37.9869 -78.1764 214° Southwest 387 445 40,000  Level Washington Center
07:18PM 37.9100 -78.2581 220° Southwest 382 440 40,000  Level Washington Center
07:19PM 37.8228 -78.3392 216° Southwest 377 434 40,000  Level Washington Center
07:20PM 37.7417 -78.4175 217° Southwest 377 434 40,000  Level Washington Center
07:21PM 37.6478 -78.5031 216° Southwest 377 434 40,000  Level Washington Center
07:22PM 37.5644 -78.5811 217° Southwest 377 434 40,000  Level Washington Center
07:23PM 37.4811 -78.6617 218° Southwest 377 434 40,000  Level Washington Center
07:24PM 37.3958 -78.7367 215° Southwest 377 434 40,000  Level Washington Center
07:25PM 37.3144 -78.8169 218° Southwest 377 434 40,000  Level Washington Center
07:26PM 37.2289 -78.8917 215° Southwest 377 434 40,000  Level Washington Center
07:27PM 37.1539 -78.9639 218° Southwest 377 434 40,000  Level Washington Center
07:28PM 37.0725 -79.0411 217° Southwest 377 434 40,000  Level Washington Center
07:29PM 36.9889 -79.1178 216° Southwest 377 434 40,000  Level Washington Center
07:30PM 36.9053 -79.1919 215° Southwest 372 428 40,000  Level Washington Center
07:31PM 36.8214 -79.2686 216° Southwest 372 428 40,000  Level Washington Center
07:32PM 36.7314 -79.3525 217° Southwest 372 428 40,000  Level Washington Center
07:33PM 36.6517 -79.4261 217° Southwest 372 428 40,000  Level Washington Center
07:34PM 36.5681 -79.5022 216° Southwest 372 428 40,000  Level Washington Center
07:35PM 36.4861 -79.5783 217° Southwest 372 428 40,000  Level Washington Center
07:37PM 36.2800 -79.7608 216° Southwest 366 421 40,000  Level Atlanta Center
07:38PM 36.1969 -79.8347 216° Southwest 366 421 40,000  Level Atlanta Center
07:39PM 36.1139 -79.9083 216° Southwest 373 429 40,000  Level Atlanta Center
07:40PM 36.0331 -79.9817 216° Southwest 373 429 40,000  Level Atlanta Center
07:41PM 35.9425 -80.0247 201° Southwest 373 429 40,000  Level Atlanta Center
07:42PM 35.8422 -80.0783 203° Southwest 383 441 40,000  Level Atlanta Center
07:43PM 35.7456 -80.1242 201° Southwest 388 447 40,000  Level Atlanta Center
07:44PM 35.6469 -80.1772 204° Southwest 388 447 40,000  Level Atlanta Center
07:45PM 35.5486 -80.2278 203° Southwest 388 447 40,000  Level Atlanta Center
07:46PM 35.4497 -80.2758 202° Southwest 388 447 40,000  Level Atlanta Center
07:47PM 35.3511 -80.3261 203° Southwest 388 447 40,000  Level Atlanta Center
07:48PM 35.2525 -80.3739 202° Southwest 393 452 40,000  Level Atlanta Center
07:50PM 35.0586 -80.4708 202° Southwest 385 443 40,000  Level Jacksonville Center
07:51PM 34.9697 -80.5164 203° Southwest 385 443 40,000  Level Jacksonville Center
07:52PM 34.8725 -80.5647 202° Southwest 385 443 40,000 -60 Level Jacksonville Center
07:53PM 34.7775 -80.6078 200° South 376 433 39,900 -60 Descending Jacksonville Center
07:54PM 34.6761 -80.6583 202° Southwest 376 433 39,900  Level Jacksonville Center
07:55PM 34.5625 -80.7192 204° Southwest 387 445 40,000  Climbing Jacksonville Center
07:56PM 34.4653 -80.7669 202° Southwest 387 445 40,000  Level Jacksonville Center
07:57PM 34.3661 -80.8172 203° Southwest 387 445 40,000  Level Jacksonville Center
07:58PM 34.2892 -80.8467 198° South 387 445 40,000 -60 Level Jacksonville Center
07:59PM 34.1858 -80.8994 203° Southwest 387 445 39,900 -60 Descending Jacksonville Center
08:00PM 34.0886 -80.9467 202° Southwest 387 445 39,900  Level Jacksonville Center
08:01PM 33.9869 -80.9967 202° Southwest 387 445 39,900  Level Jacksonville Center
08:02PM 33.8814 -81.0439 200° South 387 445 40,000  Climbing Jacksonville Center
08:03PM 33.7819 -81.0936 203° Southwest 387 445 40,000 -60 Level Jacksonville Center
08:04PM 33.6928 -81.1378 202° Southwest 387 445 39,900 -60 Descending Jacksonville Center
08:05PM 33.5933 -81.1869 202° Southwest 392 451 39,900  Level Jacksonville Center
08:06PM 33.4917 -81.2389 203° Southwest 392 451 39,900  Level Jacksonville Center
08:07PM 33.3922 -81.2856 201° Southwest 392 451 39,900  Level Jacksonville Center
08:08PM 33.2906 -81.3369 203° Southwest 392 451 39,900  Level Jacksonville Center
08:09PM 33.1908 -81.3858 202° Southwest 392 451 39,900  Level Jacksonville Center
08:10PM 33.0914 -81.4347 202° Southwest 392 451 39,900  Level Jacksonville Center
08:11PM 32.9894 -81.4833 202° Southwest 392 451 39,900  Level Jacksonville Center
08:12PM 32.8919 -81.5294 202° Southwest 392 451 39,900  Level Jacksonville Center
08:13PM 32.7922 -81.5781 202° Southwest 392 451 39,900  Level Jacksonville Center
08:14PM 32.6947 -81.6261 203° Southwest 392 451 39,900  Level Jacksonville Center
08:15PM 32.5867 -81.6794 203° Southwest 387 445 40,000  Climbing Jacksonville Center
08:16PM 32.4825 -81.7153 196° South 392 451 40,000  Level Jacksonville Center
08:17PM 32.3806 -81.7314 188° South 399 459 40,000  Level Jacksonville Center
08:18PM 32.2575 -81.7550 189° South 411 473 40,000  Level Jacksonville Center
08:19PM 32.1469 -81.7761 189° South 411 473 40,000  Level Jacksonville Center
08:20PM 32.0344 -81.7972 189° South 411 473 40,000  Level Jacksonville Center
08:21PM 31.9219 -81.8156 188° South 411 473 40,000  Level Jacksonville Center
08:22PM 31.8239 -81.8364 190° South 411 473 40,000  Level Jacksonville Center
08:23PM 31.7008 -81.8597 189° South 411 473 40,000  Level Jacksonville Center
08:24PM 31.5883 -81.8806 189° South 411 473 40,000  Level Jacksonville Center
08:25PM 31.4883 -81.8961 188° South 411 473 40,000  Level Jacksonville Center
08:26PM 31.3653 -81.9194 189° South 411 473 40,000 -60 Level Jacksonville Center
08:27PM 31.2650 -81.9375 189° South 411 473 39,900 -60 Descending Jacksonville Center
08:28PM 31.1525 -81.9581 189° South 411 473 39,900  Level Jacksonville Center
08:29PM 31.0419 -81.9808 190° South 411 473 39,900  Level Jacksonville Center
08:30PM 30.9294 -82.0014 189° South 411 473 39,900  Level Jacksonville Center
08:31PM 30.8169 -82.0217 189° South 411 473 39,900  Level Jacksonville Center
08:32PM 30.7022 -82.0422 189° South 411 473 39,900  Level Jacksonville Center
08:33PM 30.5917 -82.0625 189° South 411 473 39,900  Level Jacksonville Center
08:34PM 30.4686 -82.0781 186° South 411 473 39,900  Level Jacksonville Center
08:35PM 30.3581 -82.0981 189° South 411 473 39,900  Level Jacksonville Center
08:36PM 30.2453 -82.1183 189° South 411 473 39,900  Level Jacksonville Center
08:37PM 30.1264 -82.1217 181° South 411 473 39,900  Level Jacksonville Center
08:38PM 30.0053 -82.0986 171° South 427 491 39,900 -180 Level Jacksonville Center
08:39PM 29.8861 -82.0756 170° South 433 498 39,600 -720 Descending Jacksonville Center
08:40PM 29.7669 -82.0503 170° South 433 498 38,500 -1,020 Descending Jacksonville Center
08:41PM 29.6436 -82.0250 170° South 438 504 37,600 -1,140 Descending Jacksonville Center
08:42PM 29.5264 -82.0022 170° South 438 504 36,300 -1,200 Descending Jacksonville Center
08:43PM 29.4094 -81.9794 170° South 438 504 35,200 -480 Descending Jacksonville Center
08:46PM 29.1228 -81.9206 170° South 456 525 34,800 -600 Descending Miami Center
08:47PM 29.0069 -81.8964 170° South 443 510 33,300 -1,800 Descending Miami Center
08:48PM 28.8806 -81.8739 171° South 448 516 31,200 -2,040 Descending Miami Center
08:49PM 28.7583 -81.8472 169° South 448 516 29,300 -1,860 Descending Miami Center
08:50PM 28.6319 -81.8225 170° South 453 521 27,500 -1,200 Descending Miami Center
08:51PM 28.5078 -81.7958 169° South 458 527 26,900 -540 Descending Miami Center
08:52PM 28.3819 -81.7597 166° South 469 540 26,500 -1,080 Descending Miami Center
08:53PM 28.2456 -81.7208 166° South 468 539 24,800 -1,320 Descending Miami Center
08:54PM 28.1256 -81.6872 166° South 456 525 23,900 -1,200 Descending Miami Center
08:55PM 28.0069 -81.6800 177° South 432 497 22,500 -1,500 Descending Miami Center
08:56PM 27.8956 -81.7033 190° South 425 489 21,000 -1,500 Descending Miami Center
08:57PM 27.7836 -81.6775 168° South 412 474 19,500 -1,560 Descending Miami Center
08:58PM 27.6844 -81.6522 167° South 412 474 17,900 -1,860 Descending Miami Center
08:59PM 27.5747 -81.6242 167° South 412 474 15,800 -1,920 Descending Miami Center
09:00PM 27.4608 -81.5961 168° South 407 468 14,100 -1,440 Descending Miami Center
09:01PM 27.3572 -81.5708 168° South 401 461 13,000 -1,140 Descending Miami Center
09:02PM 27.2539 -81.5431 167° South 390 449 11,900 -1,080 Descending Miami Center
09:03PM 27.1481 -81.5178 168° South 390 449 10,900 -960 Descending Miami Center
09:04PM 27.0489 -81.4928 167° South 385 443 10,000 -480 Descending Miami Center
09:05PM 26.9539 -81.4589 162° South 369 425 10,000  Level Miami Center
09:06PM 26.8617 -81.4064 153° Southeast 368 423 10,000  Level Miami Center
09:07PM 26.7622 -81.3817 167° South 370 426 10,000 -300 Level Miami Center
09:08PM 26.6697 -81.3942 187° South 351 404 9,500 -1,200 Descending Miami Center
09:09PM 26.5903 -81.3981 183° South 314 361 7,600 -1,800 Descending Miami Center
09:10PM 26.5131 -81.4044 184° South 284 327 5,900 -1,740 Descending Miami Center
09:12PM 26.3000 -81.4693 270° West  Level FlightAware Approximate
09:19PM 26.1500 -81.7667 246° West  Level FlightAware Approximate
09:20PM 26.1524 -81.7756 246° West  Level Estimated
09:21PM 26.1524 -81.7756 246° West  Level Estimated
09:22PM 26.1524 -81.7756 246° West  Level Estimated
09:23PM 26.1524 -81.7756 246° West  Level Estimated
09:24PM 26.1524 -81.7756 246° West  Level Estimated
09:25PM 26.1524 -81.7756 246° West  Level Estimated
09:26PM 26.1524 -81.7756 246° West  Level Estimated
09:27PM 26.1524 -81.7756 246° West  Level Estimated
09:28PM 26.1524 -81.7756 246° West  Level Estimated
09:29PM 26.1524 -81.7756 246° West  Level Estimated
09:30PM 26.1524 -81.7756 246° West  Level Estimated
09:31PM 26.1524 -81.7756 246° West  Level Estimated
09:32PM 26.1524 -81.7756 246° West  Level Estimated